Tiempo atmosférico en la estación meteorológica de Hermigua, Santa Cruz de Tenerife (252 m.)



Fecha
DESCASC
Temp. máxima en grados centígrados (hora)
DESCASC
Temp. mínima en grados centígrados (hora)
DESCASC
Temp. media en grados centígrados
DESCASC
Racha de viento máxima en m/sg (hora)
DESCASC
Velocidad máxima media en intervalos de 10 minutos(hora)
DESCASC
Precipitaciones diarias en mm
DESCASC
Precipitaciones de 00:00 a 06:00 en mm
DESCASC
Precipitaciones de 06:00 a 12:00 en mm
DESCASC
Precipitaciones de 12:00 a 18:00 en mm
DESCASC
Precipitaciones de 18:00 a 24:00 en mm
DESCASC
17-02-2019 19 (13:30) 12.2 (05:00) 15.6 6.11 (08:20) 3.06 (06:10) 0 0 0 0 0
16-02-2019 15.7 (16:30) 13 (05:50) 14.3 16.94 (05:50) 7.5 (03:30) 26.8 14.2 6.8 5.8 0
15-02-2019 18 (10:10) 14 (02:00) 16 15.28 (20:20) 6.94 (20:10) 3.4 0 3.4 0 0
14-02-2019 25.3 (12:40) 15 (00:00) 20.1 15 (16:40) 6.39 (14:50) 0 0 0 0 0
13-02-2019 28.3 (13:10) 14.3 (00:00) 21.3 13.61 (14:20) 5.83 (14:10) 0 0 0 0 0
12-02-2019 26 (10:50) 15.6 (00:00) 20.8 6.67 (08:20) 2.78 (07:00) 0 0 0 0 0
11-02-2019 27.2 (15:20) 11.2 (00:00) 19.2 15 (14:10) 6.11 (14:30) 0 0 0 0 0
10-02-2019 22 (13:30) 8.9 (00:00) 15.4 4.72 (14:30) 2.78 (16:00) 0 0 0 0 0
09-02-2019 18.8 (16:10) 8.2 (00:00) 13.5 5.28 (12:30) 2.78 (00:10) 0 0 0 0 0
08-02-2019 18 (12:50) 11.1 (00:00) 14.6 5.83 (13:20) 3.33 (02:20) 0 0 0 0 0
07-02-2019 18.8 (12:10) 8.8 (00:00) 13.8 6.11 (13:20) 3.06 (23:59) 0 0 0 0 0
06-02-2019 21.4 (16:20) 9.1 (07:40) 15.3 5.28 (12:50) 3.33 (20:50) 0 0 0 0 0
05-02-2019 22.7 (14:40) 11.5 (05:40) 17.1 11.67 (09:40) 3.89 (12:00) 0 0 0 0 0
04-02-2019 18.4 (14:50) 13.8 (00:00) 16.1 6.94 (01:00) 2.78 (00:20) 0 0 0 0 0
03-02-2019 16.1 (11:40) 14.7 (00:00) 15.4 11.11 (06:40) 5.28 (05:30) 0 0 0 0 0
02-02-2019 17.2 (13:50) 14.5 (00:00) 15.9 10.28 (02:40) 5 (02:40) 2.8 2.8 0 0 0
01-02-2019 19.6 (13:00) 14.6 (00:00) 17.1 9.72 (18:10) 4.17 (20:10) 0 0 0 0 0
31-01-2019 16.2 (16:20) 13.8 (00:00) 15 8.33 (10:10) 3.61 (12:20) 0 0 0 0 0
30-01-2019 17 (12:50) 13.3 (00:00) 15.2 8.33 (19:00) 4.17 (09:50) 3 0.8 1.6 0 0.6
29-01-2019 16.4 (12:00) 14.2 (00:00) 15.3 7.22 (20:50) 3.33 (14:40) 0.6 0 0 0 0.6
28-01-2019 17.6 (13:20) 14.2 (00:00) 15.9 8.06 (16:40) 3.61 (16:40) 0 0 0 0 0
27-01-2019 18.9 (13:20) 11.8 (00:00) 15.3 6.94 (15:30) 3.33 (15:10) 0 0 0 0 0
26-01-2019 18.8 (15:00) 12.2 (00:00) 15.5 4.17 (16:00) 2.5 (00:10) 0 0 0 0 0
25-01-2019 18.1 (15:00) 11 (00:00) 14.6 4.72 (15:20) 2.22 (08:00) 0 0 0 0 0
24-01-2019 17.2 (13:30) 13.9 (00:00) 15.6 7.5 (03:50) 3.61 (16:10) 0 0 0 0 0
23-01-2019 16.2 (12:40) 14.6 (00:00) 15.4 9.44 (05:30) 4.17 (05:40) 0 0 0 0 0
22-01-2019 17 (14:20) 13.7 (00:00) 15.3 10.28 (07:40) 4.72 (21:20) 0 0 0 0 0
21-01-2019 16.6 (13:40) 14.2 (00:00) 15.4 10.83 (09:50) 5.28 (05:10) 0.2 0.2 0 0 0
20-01-2019 17.4 (13:20) 14.7 (00:00) 16 10.28 (22:50) 3.89 (13:20) 5.4 0 0 0 5.4
19-01-2019 16.6 (13:10) 13.4 (00:00) 15 9.72 (07:10) 3.61 (03:10) 0.8 0 0.2 0 0.6

Gráficas

Temp. máximas Temp. mínimas Temp. medias Precipitaciones Rachas de viento máximas Velocidades máximas media en intervalos de 10 minutos

Datos horarios

Fecha y hora oficial Temperatura (ºC) Velocidad del viento (km/h) Dirección del viento Racha (km/h) Dirección de racha Precipitación (mm) Presión (hPa) Tendencia (hPa) Humedad (%)
2019-02-17 23:00:00 13.6 5 Sur 12 Sur 0 -- -- 82
2019-02-17 22:00:00 13.9 5 Sur 9 Sudeste 0 -- -- 82
2019-02-17 21:00:00 14.7 2 Este 10 Sudeste 0 -- -- 79
2019-02-17 20:00:00 14.5 6 Sur 10 Sudeste 0 -- -- 78
2019-02-17 19:00:00 15.8 3 Norte 10 Nordeste 0 -- -- 80
2019-02-17 18:00:00 16.5 5 Sudeste 12 Sudeste 0 -- -- 78
2019-02-17 17:00:00 16.9 5 Nordeste 17 Nordeste 0 -- -- 76
2019-02-17 16:00:00 18 6 Nordeste 15 Nordeste 0 -- -- 70
2019-02-17 15:00:00 18.4 7 Norte 18 Nordeste 0 -- -- 71
2019-02-17 14:00:00 18.3 9 Nordeste 20 Este 0 -- -- 72
2019-02-17 13:00:00 18.9 5 Noroeste 16 Norte 0 -- -- 68
2019-02-17 12:00:00 18.4 5 Nordeste 15 Nordeste 0 -- -- 68
2019-02-17 11:00:00 18 5 Norte 16 Nordeste 0 -- -- 73
2019-02-17 10:00:00 15.7 3 Sudoeste 14 Sur 0 -- -- 76
2019-02-17 09:00:00 13 9 Sur 22 Sur 0 -- -- 82
2019-02-17 08:00:00 12.4 9 Sur 17 Sur 0 -- -- 80
2019-02-17 07:00:00 12.5 10 Sur 18 Sur 0 -- -- 79
2019-02-17 06:00:00 12.4 9 Sur 14 Sur 0 -- -- 84
2019-02-17 05:00:00 12.2 7 Sur 12 Sur 0 -- -- 88
2019-02-17 04:00:00 13 6 Sur 10 Oeste 0 -- -- 85
2019-02-17 03:00:00 12.8 3 Sudoeste 10 Sudeste 0 -- -- 88
2019-02-17 02:00:00 12.8 4 Sur 10 Sur 0 -- -- 89
2019-02-17 01:00:00 13.9 3 Sur 6 Sur 0 -- -- 86
2019-02-17 00:00:00 14.9 0 Calma 15 Nordeste 0 -- -- 81
2019-02-16 23:00:00 15.1 4 Norte 23 Nordeste 0 -- -- 79
2019-02-16 22:00:00 15 7 Norte 17 Nordeste 0 -- -- 80
2019-02-16 21:00:00 15.1 5 Nordeste 27 Nordeste 0 -- -- 81
2019-02-16 20:00:00 15.1 11 Nordeste 27 Nordeste 0 -- -- 83
2019-02-16 19:00:00 14.9 7 Nordeste 27 Nordeste 0 -- -- 82
2019-02-16 18:00:00 15.1 12 Nordeste 29 Nordeste 0 -- -- 84
2019-02-16 17:00:00 14.9 8 Nordeste 30 Norte 0.6 -- -- 87
2019-02-16 16:00:00 15.2 6 Nordeste 44 Nordeste 0 -- -- 84
2019-02-16 15:00:00 14.9 20 Nordeste 47 Nordeste 0.4 -- -- 87
2019-02-16 14:00:00 14.6 21 Nordeste 44 Nordeste 0 -- -- 89
2019-02-16 13:00:00 14.1 15 Nordeste 44 Nordeste 4.8 -- -- 97
2019-02-16 12:00:00 15.1 21 Nordeste 48 Nordeste 0.4 -- -- 81
2019-02-16 11:00:00 15.1 15 Nordeste 42 Nordeste 0 -- -- 81
2019-02-16 10:00:00 14.5 22 Nordeste 42 Nordeste 0.2 -- -- 83
2019-02-16 09:00:00 13.8 23 Nordeste 45 Nordeste 6.2 -- -- 95
2019-02-16 08:00:00 14.6 22 Nordeste 49 Nordeste 0 -- -- 80
2019-02-16 07:00:00 14.4 21 Nordeste 45 Nordeste 0 -- -- 82
2019-02-16 06:00:00 13.3 24 Nordeste 61 Nordeste 13.6 -- -- 88
2019-02-16 05:00:00 14.5 24 Nordeste 54 Norte 0 -- -- 79
2019-02-16 04:00:00 14.2 24 Nordeste 50 Norte 0.2 -- -- 80
2019-02-16 03:00:00 14.7 24 Nordeste 54 Nordeste 0 -- -- 75
2019-02-16 02:00:00 14.7 22 Nordeste 49 Nordeste 0 -- -- 78
2019-02-16 01:00:00 14.4 26 Nordeste 47 Nordeste 0.4 -- -- 78
2019-02-16 00:00:00 15 19 Nordeste 50 Nordeste 0 -- -- 73
2019-02-15 23:00:00 15.2 17 Nordeste 44 Nordeste 0 -- -- 72
2019-02-15 22:00:00 15.2 17 Este 44 Nordeste 0 -- -- 74
2019-02-15 21:00:00 15.3 19 Nordeste 55 Nordeste 0 -- -- 68
2019-02-15 20:00:00 15 21 Nordeste 49 Nordeste 0 -- -- 74
2019-02-15 19:00:00 15.1 22 Nordeste 47 Nordeste 0 -- -- 67
2019-02-15 18:00:00 15.2 23 Nordeste 46 Nordeste 0 -- -- 67
2019-02-15 17:00:00 15.2 23 Nordeste 43 Nordeste 0 -- -- 69
2019-02-15 16:00:00 15.3 18 Nordeste 47 Nordeste 0 -- -- 70
2019-02-15 15:00:00 15.4 19 Nordeste 44 Nordeste 0 -- -- 70
2019-02-15 14:00:00 15.8 13 Nordeste 42 Nordeste 0 -- -- 72
2019-02-15 13:00:00 15.6 15 Nordeste 41 Nordeste 0 -- -- 72
2019-02-15 12:00:00 15.6 11 Norte 30 Norte 0.4 -- -- 73
2019-02-15 11:00:00 14.2 6 Sur 30 Oeste 3 -- -- 83
2019-02-15 10:00:00 17.8 10 Sur 31 Oeste 0 -- -- 55
2019-02-15 09:00:00 15.6 14 Oeste 37 Sudoeste 0 -- -- 55
2019-02-15 08:00:00 14.6 8 Sur 35 Sur 0 -- -- 68
2019-02-15 07:00:00 15.1 12 Sudoeste 37 Sudoeste 0 -- -- 74
2019-02-15 06:00:00 15.1 14 Sudoeste 36 Sudoeste 0 -- -- 61
2019-02-15 05:00:00 15.8 5 Oeste 25 Oeste 0 -- -- 75
2019-02-15 04:00:00 16.2 5 Este 14 Sur 0 -- -- 71
2019-02-15 03:00:00 15.9 4 Norte 11 Nordeste 0 -- -- 76
2019-02-15 02:00:00 14 3 Sur 6 Sudoeste 0 -- -- 78
2019-02-15 01:00:00 14.3 7 Sur 9 Sudeste 0 -- -- 67
2019-02-15 00:00:00 15 3 Nordeste 10 Este 0 -- -- 63
2019-02-14 23:00:00 18.2 7 Este 19 Sudoeste 0 -- -- 50
2019-02-14 22:00:00 19.7 6 Sur 41 Sudoeste 0 -- -- 31
2019-02-14 21:00:00 20.6 13 Sur 50 Sur 0 -- -- 24
2019-02-14 20:00:00 20.1 15 Sur 42 Sur 0 -- -- 33
2019-02-14 19:00:00 20.1 17 Sur 48 Sudoeste 0 -- -- 40
2019-02-14 18:00:00 21.4 14 Sur 39 Sur 0 -- -- 33
2019-02-14 17:00:00 23.5 18 Sur 54 Sudoeste 0 -- -- 31
2019-02-14 16:00:00 24.7 16 Sur 46 Sur 0 -- -- 26
2019-02-14 15:00:00 25.2 17 Sur 50 Sur 0 -- -- 25
2019-02-14 14:00:00 24.6 20 Sur 50 Sudoeste 0 -- -- 26
2019-02-14 13:00:00 24.8 18 Sur 49 Sur 0 -- -- 23
2019-02-14 12:00:00 24.9 19 Sur 50 Sudoeste 0 -- -- 21
2019-02-14 11:00:00 24.3 20 Sur 50 Sudeste 0 -- -- 22
2019-02-14 10:00:00 24.3 21 Sur 44 Sur 0 -- -- 15
2019-02-14 09:00:00 23 20 Sur 51 Sudoeste 0 -- -- 13
2019-02-14 08:00:00 22.7 18 Sur 40 Sudoeste 0 -- -- 10
2019-02-14 07:00:00 22.9 17 Sur 38 Sudoeste 0 -- -- 10
2019-02-14 06:00:00 23.1 14 Sur 41 Sudoeste 0 -- -- 9
2019-02-14 05:00:00 23.4 14 Sur 39 Sudoeste 0 -- -- 9
2019-02-14 04:00:00 23.9 15 Sur 41 Sudoeste 0 -- -- 8
2019-02-14 03:00:00 24.3 17 Sur 37 Sudoeste 0 -- -- 7
2019-02-14 02:00:00 24.5 16 Sur 41 Sudoeste 0 -- -- 7
2019-02-14 01:00:00 24.6 16 Sur 42 Sudoeste 0 -- -- 7
2019-02-14 00:00:00 24.4 17 Sur 41 Sur 0 -- -- 7
2019-02-13 23:00:00 24.6 17 Sur 44 Sudoeste 0 -- -- 7
2019-02-13 22:00:00 24.4 14 Sur 42 Sudoeste 0 -- -- 7
2019-02-13 21:00:00 24.4 17 Sur 45 Sudoeste 0 -- -- 7
2019-02-13 20:00:00 24.3 17 Sur 34 Sudoeste 0 -- -- 7
2019-02-13 19:00:00 24.3 16 Sur 36 Sudeste 0 -- -- 8
2019-02-13 18:00:00 24.8 14 Sur 37 Sur 0 -- -- 8
2019-02-13 17:00:00 27 14 Sur 39 Sudoeste 0 -- -- 8
2019-02-13 16:00:00 28.1 14 Sur 33 Sudoeste 0 -- -- 9
2019-02-13 15:00:00 27.8 14 Sur 49 Sudoeste 0 -- -- 10
2019-02-13 14:00:00 28 18 Sur 41 Sur 0 -- -- 11
2019-02-13 13:00:00 28 15 Sur 42 Sur 0 -- -- 11
2019-02-13 12:00:00 26.5 18 Sur 48 Sur 0 -- -- 12
2019-02-13 11:00:00 25.3 17 Sur 48 Sudoeste 0 -- -- 12
2019-02-13 10:00:00 24.6 14 Sur 41 Sudeste 0 -- -- 12
2019-02-13 09:00:00 22.5 9 Sur 27 Sur 0 -- -- 12
2019-02-13 08:00:00 20.8 8 Sudeste 25 Sudoeste 0 -- -- 14
2019-02-13 07:00:00 16.3 4 Sudeste 11 Sur 0 -- -- 21
2019-02-13 06:00:00 14.5 2 Sudeste 8 Este 0 -- -- 24
2019-02-13 05:00:00 15.3 3 Sur 8 Sudeste 0 -- -- 22
2019-02-13 04:00:00 16.7 3 Sudeste 13 Sudeste 0 -- -- 19
2019-02-13 03:00:00 15.7 4 Sudeste 12 Sur 0 -- -- 21
2019-02-13 02:00:00 16.4 7 Sudeste 12 Sur 0 -- -- 20
2019-02-13 01:00:00 16.8 6 Sur 12 Sudeste 0 -- -- 18
2019-02-13 00:00:00 15.8 5 Sur 11 Sur 0 -- -- 23
2019-02-12 23:00:00 16 2 Sur 9 Sur 0 -- -- 24
2019-02-12 22:00:00 16.9 4 Sudeste 11 Sur 0 -- -- 23
2019-02-12 21:00:00 16.6 5 Sur 10 Sur 0 -- -- 25
2019-02-12 20:00:00 19.1 6 Sur 13 Sur 0 -- -- 21
2019-02-12 19:00:00 18.3 3 Este 6 Sur 0 -- -- 39
2019-02-12 18:00:00 20.9 2 Sudoeste 11 Nordeste 0 -- -- 51
2019-02-12 17:00:00 22.6 4 Nordeste 10 Nordeste 0 -- -- 44
2019-02-12 16:00:00 21.4 7 Nordeste 13 Nordeste 0 -- -- 61
2019-02-12 15:00:00 22 8 Nordeste 15 Norte 0 -- -- 52
2019-02-12 14:00:00 23.7 7 Nordeste 14 Nordeste 0 -- -- 26
2019-02-12 13:00:00 23.8 6 Nordeste 13 Nordeste 0 -- -- 25
2019-02-12 12:00:00 24.2 7 Nordeste 14 Nordeste 0 -- -- 23
2019-02-12 11:00:00 26 4 Nordeste 17 Sudoeste 0 -- -- 21
2019-02-12 10:00:00 24.4 7 Sur 19 Sudoeste 0 -- -- 13
2019-02-12 09:00:00 21.5 7 Sur 24 Oeste 0 -- -- 17
2019-02-12 08:00:00 20.4 7 Sudoeste 18 Sudoeste 0 -- -- 15
2019-02-12 07:00:00 20.1 10 Sudoeste 20 Sudoeste 0 -- -- 15
2019-02-12 06:00:00 18.9 5 Sur 15 Oeste 0 -- -- 15
2019-02-12 05:00:00 17.9 5 Sur 10 Sudoeste 0 -- -- 17
2019-02-12 04:00:00 18.2 5 Sur 17 Sur 0 -- -- 20
2019-02-12 03:00:00 18.9 9 Sur 17 Sur 0 -- -- 19
2019-02-12 02:00:00 17.2 7 Sur 18 Sur 0 -- -- 24
2019-02-12 01:00:00 16.8 8 Sur 13 Sur 0 -- -- 23
2019-02-12 00:00:00 18 6 Sur 16 Sur 0 -- -- 21
2019-02-11 23:00:00 18.7 10 Sur 15 Sur 0 -- -- 19
2019-02-11 22:00:00 18.7 4 Sur 9 Sur 0 -- -- 19
2019-02-11 21:00:00 20 3 Sur 20 Sur 0 -- -- 14
2019-02-11 20:00:00 22.7 8 Sur 23 Sudoeste 0 -- -- 11
2019-02-11 19:00:00 21.3 3 Noroeste 13 Sudoeste 0 -- -- 16
2019-02-11 18:00:00 24.1 5 Sudoeste 26 Sudoeste 0 -- -- 11
2019-02-11 17:00:00 26.5 11 Sudoeste 32 Sudoeste 0 -- -- 11
2019-02-11 16:00:00 27 13 Sur 42 Sur 0 -- -- 10
2019-02-11 15:00:00 27.1 16 Sur 54 Sudoeste 0 -- -- 11
2019-02-11 14:00:00 26.8 20 Sur 46 Sudoeste 0 -- -- 12
2019-02-11 13:00:00 26.3 18 Sur 49 Sudoeste 0 -- -- 13
2019-02-11 12:00:00 25.6 18 Sur 51 Sudoeste 0 -- -- 14
2019-02-11 11:00:00 24.7 12 Sur 38 Sudoeste 0 -- -- 16
2019-02-11 10:00:00 23.4 9 Sur 27 Sur 0 -- -- 17
2019-02-11 09:00:00 20.6 6 Sur 24 Nordeste 0 -- -- 20
2019-02-11 08:00:00 20.2 6 Sudeste 24 Este 0 -- -- 19
2019-02-11 07:00:00 18.8 6 Sur 22 Este 0 -- -- 21
2019-02-11 06:00:00 16 4 Sur 18 Este 0 -- -- 29
2019-02-11 05:00:00 15.1 3 Sudeste 15 Este 0 -- -- 33
2019-02-11 04:00:00 14 5 Sur 16 Sudeste 0 -- -- 30
2019-02-11 03:00:00 12.3 6 Sur 13 Sur 0 -- -- 51
2019-02-11 02:00:00 12.4 4 Sur 11 Este 0 -- -- 65
2019-02-11 01:00:00 12.9 6 Este 13 Nordeste 0 -- -- 52
2019-02-11 00:00:00 11.2 4 Sudeste 9 Sudeste 0 -- -- 49
2019-02-10 23:00:00 10.8 4 Sur 9 Sudeste 0 -- -- 70
2019-02-10 22:00:00 11.9 3 Sudeste 9 Sudeste 0 -- -- 89
2019-02-10 21:00:00 13.2 4 Sudeste 8 Sur 0 -- -- 92
2019-02-10 20:00:00 14.7 6 Sur 9 Este 0 -- -- 84
2019-02-10 19:00:00 16.1 3 Este 7 Nordeste 0 -- -- 84
2019-02-10 18:00:00 17.9 4 Nordeste 10 Nordeste 0 -- -- 83
2019-02-10 17:00:00 19.5 4 Nordeste 16 Nordeste 0 -- -- 65
2019-02-10 16:00:00 20 10 Nordeste 16 Este 0 -- -- 68
2019-02-10 15:00:00 20.4 5 Norte 17 Nordeste 0 -- -- 67
2019-02-10 14:00:00 21.4 6 Noroeste 13 Norte 0 -- -- 53
2019-02-10 13:00:00 21.3 6 Nordeste 17 Norte 0 -- -- 52
2019-02-10 12:00:00 19.9 6 Nordeste 15 Nordeste 0 -- -- 68
2019-02-10 11:00:00 18.6 6 Este 14 Este 0 -- -- 67
2019-02-10 10:00:00 16.7 4 Este 12 Nordeste 0 -- -- 49
2019-02-10 09:00:00 10.5 9 Sur 12 Sur 0 -- -- 59
2019-02-10 08:00:00 10.3 3 Sudeste 9 Este 0 -- -- 86
2019-02-10 07:00:00 10.1 5 Sudeste 10 Sudeste 0 -- -- 76
2019-02-10 06:00:00 12.1 6 Este 14 Sur 0 -- -- 67
2019-02-10 05:00:00 10.6 7 Sur 13 Sur 0 -- -- 49
2019-02-10 04:00:00 10.5 6 Sudeste 10 Sudeste 0 -- -- 73
2019-02-10 03:00:00 8.9 3 Sudeste 8 Sudeste 0 -- -- 67
2019-02-10 02:00:00 9.6 6 Sudeste 8 Sudeste 0 -- -- 73
2019-02-10 01:00:00 9.2 4 Sudeste 8 Sur 0 -- -- 75
2019-02-10 00:00:00 9.7 6 Sudeste 10 Sur 0 -- -- 82
2019-02-09 23:00:00 10.7 4 Sudeste 7 Este 0 -- -- 92
2019-02-09 22:00:00 11.1 5 Este 6 Sudeste 0 -- -- 90
2019-02-09 21:00:00 11.3 4 Este 9 Este 0 -- -- 70
2019-02-09 20:00:00 12.2 4 Sur 8 Este 0 -- -- 75
2019-02-09 19:00:00 14.5 4 Sur 7 Sudeste 0 -- -- 79
2019-02-09 18:00:00 16.8 5 Nordeste 8 Nordeste 0 -- -- 75
2019-02-09 17:00:00 18 4 Nordeste 11 Nordeste 0 -- -- 68
2019-02-09 16:00:00 18.7 6 Norte 15 Nordeste 0 -- -- 66
2019-02-09 15:00:00 18.4 6 Norte 18 Nordeste 0 -- -- 68
2019-02-09 14:00:00 18 8 Nordeste 18 Nordeste 0 -- -- 69
2019-02-09 13:00:00 18.2 6 Nordeste 19 Nordeste 0 -- -- 67
2019-02-09 12:00:00 17.5 9 Nordeste 17 Nordeste 0 -- -- 69
2019-02-09 11:00:00 16.6 4 Norte 8 Nordeste 0 -- -- 69
2019-02-09 10:00:00 13.8 4 Sudoeste 9 Sur 0 -- -- 74
2019-02-09 09:00:00 8.9 5 Sur 8 Sur 0 -- -- 94
2019-02-09 08:00:00 8.9 4 Sur 12 Sur 0 -- -- 93
2019-02-09 07:00:00 8.2 5 Sur 10 Sur 0 -- -- 93
2019-02-09 06:00:00 8.5 4 Sur 10 Sur 0 -- -- 91
2019-02-09 05:00:00 8.5 4 Sur 10 Sur 0 -- -- 90
2019-02-09 04:00:00 9.1 3 Sur 10 Sur 0 -- -- 90
2019-02-09 03:00:00 10 4 Sur 10 Sudeste 0 -- -- 86
2019-02-09 02:00:00 12.1 6 Sur 18 Sur 0 -- -- 78
2019-02-09 01:00:00 13.4 8 Sur 16 Sudoeste 0 -- -- 72
2019-02-09 00:00:00 13.2 8 Sur 15 Sur 0 -- -- 73
2019-02-08 23:00:00 12.1 7 Sur 13 Sur 0 -- -- 81
2019-02-08 22:00:00 11.2 6 Sur 12 Sudoeste 0 -- -- 87
2019-02-08 21:00:00 11.3 5 Sur 10 Sur 0 -- -- 86
2019-02-08 20:00:00 12.5 4 Sur 9 Sudeste 0 -- -- 82
2019-02-08 19:00:00 14.6 5 Sur 7 Sur 0 -- -- 78
2019-02-08 18:00:00 16.1 4 Nordeste 14 Nordeste 0 -- -- 74
2019-02-08 17:00:00 17.2 6 Nordeste 21 Nordeste 0 -- -- 71
2019-02-08 16:00:00 17.7 7 Nordeste 18 Norte 0 -- -- 66
2019-02-08 15:00:00 17.9 9 Nordeste 19 Norte 0 -- -- 68
2019-02-08 14:00:00 17.8 8 Nordeste 21 Nordeste 0 -- -- 66
2019-02-08 13:00:00 17.9 9 Nordeste 20 Nordeste 0 -- -- 65
2019-02-08 12:00:00 17.7 6 Nordeste 18 Nordeste 0 -- -- 66
2019-02-08 11:00:00 16.7 4 Oeste 8 Sudoeste 0 -- -- 70
2019-02-08 10:00:00 14.8 2 Oeste 13 Sur 0 -- -- 75
2019-02-08 09:00:00 13.5 9 Sur 19 Sur 0 -- -- 71
2019-02-08 08:00:00 13.1 9 Sur 15 Sur 0 -- -- 73
2019-02-08 07:00:00 13.1 10 Sur 18 Sur 0 -- -- 69
2019-02-08 06:00:00 13.3 9 Sur 15 Sur 0 -- -- 70
2019-02-08 05:00:00 13.7 6 Sur 16 Sur 0 -- -- 71
2019-02-08 04:00:00 13.2 10 Sur 15 Sur 0 -- -- 72
2019-02-08 03:00:00 12.9 10 Sur 17 Sur 0 -- -- 74
2019-02-08 02:00:00 13.4 10 Sur 17 Sudeste 0 -- -- 69
2019-02-08 01:00:00 13.2 9 Sur 16 Sur 0 -- -- 76
2019-02-08 00:00:00 13.2 11 Sur 17 Sur 0 -- -- 72
2019-02-07 23:00:00 11.9 8 Sur 11 Sudeste 0 -- -- 82
2019-02-07 22:00:00 11.3 6 Sur 11 Sur 0 -- -- 88
2019-02-07 21:00:00 11.8 5 Sur 9 Sur 0 -- -- 86
2019-02-07 20:00:00 12.7 4 Sur 7 Sur 0 -- -- 84
2019-02-07 19:00:00 15.2 4 Sur 9 Este 0 -- -- 79
2019-02-07 18:00:00 16.7 4 Este 13 Norte 0 -- -- 77
2019-02-07 17:00:00 17.7 4 Nordeste 21 Este 0 -- -- 71
2019-02-07 16:00:00 18.7 6 Nordeste 18 Nordeste 0 -- -- 67
2019-02-07 15:00:00 18.7 10 Nordeste 21 Norte 0 -- -- 67
2019-02-07 14:00:00 18.8 8 Nordeste 22 Nordeste 0 -- -- 69
2019-02-07 13:00:00 18.6 8 Nordeste 19 Norte 0 -- -- 68
2019-02-07 12:00:00 18.3 8 Este 18 Este 0 -- -- 71
2019-02-07 11:00:00 17.9 6 Oeste 14 Oeste 0 -- -- 71
2019-02-07 10:00:00 16.1 3 Nordeste 14 Sur 0 -- -- 71
2019-02-07 09:00:00 12.9 9 Sur 16 Sur 0 -- -- 68
2019-02-07 08:00:00 10.3 9 Sur 13 Sudeste 0 -- -- 73
2019-02-07 07:00:00 9 5 Sur 8 Sur 0 -- -- 77
2019-02-07 06:00:00 9.4 6 Sur 10 Sur 0 -- -- 77
2019-02-07 05:00:00 9.8 7 Sur 9 Sur 0 -- -- 71
2019-02-07 04:00:00 11.8 7 Sur 15 Sudeste 0 -- -- 62
2019-02-07 03:00:00 12.6 10 Sur 15 Sur 0 -- -- 48
2019-02-07 02:00:00 11.7 6 Sur 14 Sur 0 -- -- 41
2019-02-07 01:00:00 11.9 7 Sur 14 Sur 0 -- -- 41
2019-02-07 00:00:00 12.7 6 Sur 15 Sur 0 -- -- 42
2019-02-06 23:00:00 13.8 5 Sur 15 Sudeste 0 -- -- 33
2019-02-06 22:00:00 15 8 Sur 16 Sur 0 -- -- 28
2019-02-06 21:00:00 15.5 11 Sur 19 Sur 0 -- -- 26
2019-02-06 20:00:00 15.3 10 Sur 17 Sur 0 -- -- 31
2019-02-06 19:00:00 16.1 10 Sur 15 Sur 0 -- -- 32
2019-02-06 18:00:00 18.9 3 Este 12 Sudoeste 0 -- -- 38
2019-02-06 17:00:00 20.4 4 Nordeste 10 Este 0 -- -- 37
2019-02-06 16:00:00 20.7 6 Nordeste 12 Nordeste 0 -- -- 26
2019-02-06 15:00:00 20.1 8 Nordeste 15 Este 0 -- -- 49
2019-02-06 14:00:00 19.7 7 Nordeste 16 Nordeste 0 -- -- 50
2019-02-06 13:00:00 19.6 8 Norte 19 Nordeste 0 -- -- 47
2019-02-06 12:00:00 19.7 7 Norte 15 Este 0 -- -- 47
2019-02-06 11:00:00 19.3 3 Sudoeste 10 Sur 0 -- -- 27
2019-02-06 10:00:00 15.7 5 Sur 10 Sur 0 -- -- 33
2019-02-06 09:00:00 10.3 5 Sur 10 Sur 0 -- -- 71
2019-02-06 08:00:00 9.2 5 Sur 11 Sur 0 -- -- 83
2019-02-06 07:00:00 9.7 4 Sudeste 10 Sudeste 0 -- -- 81
2019-02-06 06:00:00 11.2 4 Este 10 Sudeste 0 -- -- 78
2019-02-06 05:00:00 10.2 6 Sudeste 13 Sur 0 -- -- 62
2019-02-06 04:00:00 9.8 5 Sur 12 Sur 0 -- -- 66
2019-02-06 03:00:00 10.1 7 Sur 10 Sur 0 -- -- 53
2019-02-06 02:00:00 11.9 5 Sudeste 11 Este 0 -- -- 42
2019-02-06 01:00:00 10.8 4 Sur 11 Sudeste 0 -- -- 36
2019-02-06 00:00:00 11.7 3 Sudeste 11 Sur 0 -- -- 38
2019-02-05 23:00:00 14.4 7 Sudeste 16 Sur 0 -- -- 32
2019-02-05 22:00:00 15.4 5 Sur 15 Oeste 0 -- -- 29
2019-02-05 21:00:00 15.7 6 Sur 17 Sur 0 -- -- 29
2019-02-05 20:00:00 16.2 7 Sur 18 Sudoeste 0 -- -- 27
2019-02-05 19:00:00 17.4 8 Sur 25 Sur 0 -- -- 24
2019-02-05 18:00:00 18.7 8 Sur 25 Sudoeste 0 -- -- 25
2019-02-05 17:00:00 21 10 Sudoeste 27 Sur 0 -- -- 24
2019-02-05 16:00:00 22.2 9 Sur 24 Sudoeste 0 -- -- 22
2019-02-05 15:00:00 22.1 7 Norte 31 Sudoeste 0 -- -- 21
2019-02-05 14:00:00 22.5 10 Sudoeste 37 Oeste 0 -- -- 22
2019-02-05 13:00:00 21.5 11 Sur 42 Sudoeste 0 -- -- 24
2019-02-05 12:00:00 20.5 14 Sudoeste 36 Sudoeste 0 -- -- 34
2019-02-05 11:00:00 19.4 10 Sudoeste 36 Sudeste 0 -- -- 37
2019-02-05 10:00:00 18.3 10 Sur 42 Este 0 -- -- 36
2019-02-05 09:00:00 17 9 Sur 28 Sudoeste 0 -- -- 37
2019-02-05 08:00:00 14.6 5 Sur 18 Este 0 -- -- 46
2019-02-05 07:00:00 12.9 6 Sur 13 Sudoeste 0 -- -- 60
2019-02-05 06:00:00 12 3 Este 9 Sudeste 0 -- -- 77
2019-02-05 05:00:00 12.5 6 Sudeste 12 Sur 0 -- -- 93
2019-02-05 04:00:00 12.8 6 Sur 10 Sudeste 0 -- -- 95
2019-02-05 03:00:00 12.7 8 Sudeste 12 Sur 0 -- -- 94
2019-02-05 02:00:00 12.5 5 Sur 13 Sur 0 -- -- 94
2019-02-05 01:00:00 13 5 Sur 13 Sur 0 -- -- 91
2019-02-05 00:00:00 13.8 5 Sur 10 Sur 0 -- -- 89
2019-02-04 23:00:00 13.8 6 Sur 11 Sur 0 -- -- 87
2019-02-04 22:00:00 14.4 4 Sur 10 Sur 0 -- -- 87
2019-02-04 21:00:00 14.6 5 Sur 12 Sur 0 -- -- 84
2019-02-04 20:00:00 15.3 4 Sur 9 Sur 0 -- -- 81
2019-02-04 19:00:00 16.2 4 Nordeste 9 Nordeste 0 -- -- 85
2019-02-04 18:00:00 16.7 4 Nordeste 14 Norte 0 -- -- 82
2019-02-04 17:00:00 17.3 6 Nordeste 16 Nordeste 0 -- -- 79
2019-02-04 16:00:00 18.3 6 Nordeste 17 Nordeste 0 -- -- 74
2019-02-04 15:00:00 18.2 8 Nordeste 20 Nordeste 0 -- -- 70
2019-02-04 14:00:00 18 8 Nordeste 19 Nordeste 0 -- -- 70
2019-02-04 13:00:00 18 8 Nordeste 18 Nordeste 0 -- -- 69
2019-02-04 12:00:00 17.4 7 Nordeste 15 Este 0 -- -- 70
2019-02-04 11:00:00 16.4 5 Nordeste 14 Norte 0 -- -- 72
2019-02-04 10:00:00 15.7 4 Sudoeste 7 Sudoeste 0 -- -- 73
2019-02-04 09:00:00 14.9 0 Calma 13 Nordeste 0 -- -- 75
2019-02-04 08:00:00 14.8 3 Nordeste 16 Norte 0 -- -- 76
2019-02-04 07:00:00 14.8 3 Norte 18 Norte 0 -- -- 74
2019-02-04 06:00:00 14.9 8 Nordeste 21 Nordeste 0 -- -- 73
2019-02-04 05:00:00 14.8 4 Nordeste 15 Nordeste 0 -- -- 75
2019-02-04 04:00:00 14.9 5 Norte 18 Norte 0 -- -- 77
2019-02-04 03:00:00 14.8 6 Norte 20 Norte 0 -- -- 75
2019-02-04 02:00:00 15 5 Nordeste 22 Nordeste 0 -- -- 77
2019-02-04 01:00:00 15.1 8 Nordeste 25 Nordeste 0 -- -- 77
2019-02-04 00:00:00 15 7 Norte 23 Este 0 -- -- 77
2019-02-03 23:00:00 15 9 Norte 23 Nordeste 0 -- -- 74
2019-02-03 22:00:00 15 10 Nordeste 28 Nordeste 0 -- -- 75
2019-02-03 21:00:00 15.1 10 Nordeste 27 Nordeste 0 -- -- 77
2019-02-03 20:00:00 15.2 9 Norte 27 Nordeste 0 -- -- 75
2019-02-03 19:00:00 15.3 10 Nordeste 25 Norte 0 -- -- 75
2019-02-03 18:00:00 15.5 9 Norte 30 Noroeste 0 -- -- 77
2019-02-03 17:00:00 15.4 11 Norte 30 Nordeste 0 -- -- 72
2019-02-03 16:00:00 15.8 9 Nordeste 27 Norte 0 -- -- 71
2019-02-03 15:00:00 15.7 10 Nordeste 32 Norte 0 -- -- 68
2019-02-03 14:00:00 15.8 10 Nordeste 33 Norte 0 -- -- 68
2019-02-03 13:00:00 15.7 9 Nordeste 29 Norte 0 -- -- 68
2019-02-03 12:00:00 15.9 10 Nordeste 29 Norte 0 -- -- 73
2019-02-03 11:00:00 15.3 10 Nordeste 34 Norte 0 -- -- 68
2019-02-03 10:00:00 15.2 10 Nordeste 31 Noroeste 0 -- -- 69
2019-02-03 09:00:00 15 10 Nordeste 32 Nordeste 0 -- -- 67
2019-02-03 08:00:00 14.8 12 Nordeste 31 Nordeste 0 -- -- 71
2019-02-03 07:00:00 14.9 10 Norte 40 Nordeste 0 -- -- 64
2019-02-03 06:00:00 15.1 11 Nordeste 39 Norte 0 -- -- 70
2019-02-03 05:00:00 15 10 Nordeste 38 Nordeste 0 -- -- 72
2019-02-03 04:00:00 15.1 9 Nordeste 31 Norte 0 -- -- 77
2019-02-03 03:00:00 15.1 12 Norte 34 Norte 0 -- -- 71
2019-02-03 02:00:00 14.8 9 Nordeste 31 Norte 0 -- -- 73
2019-02-03 01:00:00 15 13 Nordeste 32 Nordeste 0 -- -- 66
2019-02-03 00:00:00 15 10 Norte 28 Norte 0 -- -- 65
2019-02-02 23:00:00 14.9 10 Nordeste 33 Norte 0 -- -- 68
2019-02-02 22:00:00 15 10 Nordeste 31 Nordeste 0 -- -- 65
2019-02-02 21:00:00 15 10 Nordeste 31 Norte 0 -- -- 67
2019-02-02 20:00:00 14.9 11 Norte 30 Norte 0 -- -- 75
2019-02-02 19:00:00 15.1 8 Nordeste 34 Nordeste 0 -- -- 69
2019-02-02 18:00:00 15.2 9 Nordeste 29 Nordeste 0 -- -- 71
2019-02-02 17:00:00 15.3 14 Norte 32 Norte 0 -- -- 74
2019-02-02 16:00:00 15.9 12 Norte 30 Norte 0 -- -- 70
2019-02-02 15:00:00 16.5 10 Nordeste 30 Nordeste 0 -- -- 68
2019-02-02 14:00:00 16.7 12 Norte 31 Nordeste 0 -- -- 68
2019-02-02 13:00:00 16.9 10 Norte 27 Norte 0 -- -- 66
2019-02-02 12:00:00 16.5 10 Nordeste 25 Nordeste 0 -- -- 66
2019-02-02 11:00:00 15.4 9 Nordeste 30 Nordeste 0 -- -- 67
2019-02-02 10:00:00 15.3 13 Nordeste 34 Nordeste 0 -- -- 76
2019-02-02 09:00:00 15.1 7 Nordeste 35 Norte 0 -- -- 76
2019-02-02 08:00:00 14.9 14 Nordeste 31 Nordeste 0 -- -- 83
2019-02-02 07:00:00 14.7 9 Nordeste 24 Norte 0 -- -- 94
2019-02-02 06:00:00 14.7 7 Este 27 Nordeste 0 -- -- 96
2019-02-02 05:00:00 14.7 14 Norte 29 Norte 0 -- -- 99
2019-02-02 04:00:00 15.3 15 Norte 36 Norte 0 -- -- 99
2019-02-02 03:00:00 15.4 11 Nordeste 37 Norte 0.2 -- -- 99
2019-02-02 02:00:00 15.6 10 Nordeste 23 Nordeste 1 -- -- 97
2019-02-02 01:00:00 15.6 10 Nordeste 23 Nordeste 1.6 -- -- 97
2019-02-02 00:00:00 16.4 5 Nordeste 17 Norte 0 -- -- 91
2019-02-01 23:00:00 16.3 7 Norte 16 Norte 0 -- -- 87
2019-02-01 22:00:00 16.1 5 Nordeste 31 Norte 0 -- -- 91
2019-02-01 21:00:00 16.4 13 Nordeste 30 Nordeste 0 -- -- 84
2019-02-01 20:00:00 16.6 13 Nordeste 31 Este 0 -- -- 86
2019-02-01 19:00:00 16.9 11 Nordeste 35 Este 0 -- -- 82
2019-02-01 18:00:00 17.2 12 Este 32 Este 0 -- -- 78
2019-02-01 17:00:00 17.5 4 Sur 18 Norte 0 -- -- 76
2019-02-01 16:00:00 18 8 Nordeste 27 Nordeste 0 -- -- 69
2019-02-01 15:00:00 19.1 8 Nordeste 24 Nordeste 0 -- -- 65
2019-02-01 14:00:00 19.4 12 Este 28 Este 0 -- -- 63
2019-02-01 13:00:00 19.6 7 Nordeste 16 Norte 0 -- -- 60
2019-02-01 12:00:00 18.2 4 Noroeste 21 Norte 0 -- -- 62
2019-02-01 11:00:00 17.2 4 Nordeste 18 Norte 0 -- -- 65
2019-02-01 10:00:00 15.7 5 Este 11 Nordeste 0 -- -- 68
2019-02-01 09:00:00 14.9 3 Sur 11 Nordeste 0 -- -- 71
2019-02-01 08:00:00 14.8 3 Nordeste 23 Nordeste 0 -- -- 70
2019-02-01 07:00:00 15 8 Nordeste 18 Nordeste 0 -- -- 67
2019-02-01 06:00:00 15.1 5 Nordeste 19 Nordeste 0 -- -- 67
2019-02-01 05:00:00 15 6 Norte 18 Este 0 -- -- 69
2019-02-01 04:00:00 14.9 3 Nordeste 21 Nordeste 0 -- -- 67
2019-02-01 03:00:00 15 7 Nordeste 22 Nordeste 0 -- -- 66
2019-02-01 02:00:00 15.1 6 Nordeste 20 Nordeste 0 -- -- 66
2019-02-01 01:00:00 15.1 10 Norte 22 Nordeste 0 -- -- 67
2019-02-01 00:00:00 15.1 4 Norte 15 Nordeste 0 -- -- 69
2019-01-31 23:00:00 15.1 7 Norte 15 Norte 0 -- -- 65
2019-01-31 22:00:00 15 2 Sur 13 Noroeste 0 -- -- 71
2019-01-31 21:00:00 15.2 6 Nordeste 18 Este 0 -- -- 68
2019-01-31 20:00:00 15.3 9 Nordeste 19 Nordeste 0 -- -- 68
2019-01-31 19:00:00 15.4 4 Nordeste 18 Nordeste 0 -- -- 68
2019-01-31 18:00:00 15.7 8 Nordeste 21 Nordeste 0 -- -- 65
2019-01-31 17:00:00 16 6 Nordeste 19 Norte 0 -- -- 66
2019-01-31 16:00:00 16 10 Nordeste 21 Nordeste 0 -- -- 67
2019-01-31 15:00:00 15.7 8 Nordeste 23 Norte 0 -- -- 74
2019-01-31 14:00:00 15.1 10 Nordeste 22 Nordeste 0 -- -- 83
2019-01-31 13:00:00 14.8 8 Nordeste 26 Nordeste 0 -- -- 84
2019-01-31 12:00:00 15.2 10 Nordeste 26 Norte 0 -- -- 81
2019-01-31 11:00:00 14.4 4 Noroeste 30 Nordeste 0 -- -- 85
2019-01-31 10:00:00 14.9 10 Nordeste 21 Nordeste 0 -- -- 82
2019-01-31 09:00:00 14.9 3 Oeste 16 Noroeste 0 -- -- 69
2019-01-31 08:00:00 14.4 5 Nordeste 13 Noroeste 0 -- -- 70
2019-01-31 07:00:00 14.4 3 Oeste 21 Nordeste 0 -- -- 73
2019-01-31 06:00:00 14.7 5 Nordeste 19 Nordeste 0 -- -- 72
2019-01-31 05:00:00 14.1 3 Noroeste 8 Sudoeste 0 -- -- 78
2019-01-31 04:00:00 13.8 2 Este 6 Sudoeste 0 -- -- 82
2019-01-31 03:00:00 14 3 Sudeste 8 Oeste 0 -- -- 81
2019-01-31 02:00:00 14.5 4 Norte 14 Norte 0 -- -- 77
2019-01-31 01:00:00 14.6 6 Norte 21 Nordeste 0 -- -- 76
2019-01-31 00:00:00 14.6 9 Nordeste 25 Este 0 -- -- 78
2019-01-30 23:00:00 14.3 8 Nordeste 26 Nordeste 0.2 -- -- 87
2019-01-30 22:00:00 14.6 8 Norte 25 Nordeste 0 -- -- 82
2019-01-30 21:00:00 14.8 11 Nordeste 26 Nordeste 0 -- -- 80
2019-01-30 20:00:00 14.3 8 Norte 30 Norte 0.4 -- -- 83
2019-01-30 19:00:00 15 13 Nordeste 30 Norte 0 -- -- 79
2019-01-30 18:00:00 15.2 5 Nordeste 23 Norte 0 -- -- 82
2019-01-30 17:00:00 15.8 5 Nordeste 24 Norte 0 -- -- 79
2019-01-30 16:00:00 16.1 6 Nordeste 19 Norte 0 -- -- 77
2019-01-30 15:00:00 16.4 8 Nordeste 23 Nordeste 0 -- -- 78
2019-01-30 14:00:00 16.2 7 Norte 18 Nordeste 0 -- -- 77
2019-01-30 13:00:00 16.8 8 Nordeste 18 Norte 0 -- -- 77
2019-01-30 12:00:00 15.9 5 Norte 18 Nordeste 0 -- -- 78
2019-01-30 11:00:00 15 5 Nordeste 20 Norte 0 -- -- 86
2019-01-30 10:00:00 14.2 12 Nordeste 28 Nordeste 0 -- -- 94
2019-01-30 09:00:00 13.7 0 Calma 17 Norte 0.4 -- -- 97
2019-01-30 08:00:00 13.3 5 Nordeste 29 Nordeste 0.2 -- -- 98
2019-01-30 07:00:00 13.6 13 Nordeste 28 Nordeste 1 -- -- 96
2019-01-30 06:00:00 14.5 11 Nordeste 27 Nordeste 0 -- -- 83
2019-01-30 05:00:00 14.3 7 Norte 17 Norte 0 -- -- 82
2019-01-30 04:00:00 14 4 Norte 17 Norte 0 -- -- 91
2019-01-30 03:00:00 13.9 7 Nordeste 26 Nordeste 0.2 -- -- 95
2019-01-30 02:00:00 14.4 5 Norte 22 Nordeste 0.4 -- -- 94
2019-01-30 01:00:00 14.1 9 Nordeste 19 Norte 0.2 -- -- 95
2019-01-30 00:00:00 14.2 4 Sur 17 Nordeste 0.4 -- -- 94
2019-01-29 23:00:00 14.4 4 Nordeste 22 Norte 0.2 -- -- 93
2019-01-29 22:00:00 14.6 6 Nordeste 24 Norte 0 -- -- 91
2019-01-29 21:00:00 15.1 6 Norte 26 Norte 0 -- -- 84
2019-01-29 20:00:00 14.9 5 Nordeste 19 Nordeste 0 -- -- 88
2019-01-29 19:00:00 15.2 7 Nordeste 24 Nordeste 0 -- -- 89
2019-01-29 18:00:00 15.4 9 Norte 22 Norte 0 -- -- 85
2019-01-29 17:00:00 15.8 8 Nordeste 21 Nordeste 0 -- -- 80
2019-01-29 16:00:00 16.1 6 Norte 22 Este 0 -- -- 80
2019-01-29 15:00:00 16 8 Nordeste 26 Norte 0 -- -- 84
2019-01-29 14:00:00 16.2 10 Norte 25 Nordeste 0 -- -- 75
2019-01-29 13:00:00 15.9 8 Nordeste 24 Norte 0 -- -- 80
2019-01-29 12:00:00 16.4 6 Norte 23 Norte 0 -- -- 74
2019-01-29 11:00:00 15.9 10 Nordeste 23 Norte 0 -- -- 73
2019-01-29 10:00:00 15.8 5 Nordeste 16 Nordeste 0 -- -- 76
2019-01-29 09:00:00 14.9 3 Noroeste 9 Sur 0 -- -- 77
2019-01-29 08:00:00 14.3 6 Sur 12 Sur 0 -- -- 75
2019-01-29 07:00:00 14.3 6 Sur 15 Sudeste 0 -- -- 74
2019-01-29 06:00:00 14.3 6 Sudeste 14 Este 0 -- -- 73
2019-01-29 05:00:00 14.8 4 Oeste 13 Norte 0 -- -- 75
2019-01-29 04:00:00 15 4 Norte 14 Nordeste 0 -- -- 76
2019-01-29 03:00:00 14.9 3 Norte 11 Norte 0 -- -- 75
2019-01-29 02:00:00 15 8 Nordeste 21 Nordeste 0 -- -- 72
2019-01-29 01:00:00 15.1 4 Noroeste 12 Noroeste 0 -- -- 76
2019-01-29 00:00:00 15 6 Nordeste 22 Nordeste 0 -- -- 73
2019-01-28 23:00:00 15.3 6 Norte 20 Norte 0 -- -- 75
2019-01-28 22:00:00 15.4 9 Nordeste 19 Nordeste 0 -- -- 76
2019-01-28 21:00:00 15.2 9 Nordeste 20 Nordeste 0 -- -- 74
2019-01-28 20:00:00 15.2 5 Norte 19 Norte 0 -- -- 74
2019-01-28 19:00:00 15.3 7 Nordeste 25 Norte 0 -- -- 74
2019-01-28 18:00:00 15.8 7 Nordeste 24 Norte 0 -- -- 73
2019-01-28 17:00:00 16.2 8 Nordeste 29 Norte 0 -- -- 74
2019-01-28 16:00:00 17 7 Nordeste 22 Nordeste 0 -- -- 74
2019-01-28 15:00:00 16.8 10 Nordeste 25 Nordeste 0 -- -- 70
2019-01-28 14:00:00 16.9 9 Norte 23 Nordeste 0 -- -- 68
2019-01-28 13:00:00 17.5 5 Nordeste 19 Nordeste 0 -- -- 67
2019-01-28 12:00:00 16.9 8 Norte 21 Nordeste 0 -- -- 68
2019-01-28 11:00:00 16.5 9 Norte 22 Nordeste 0 -- -- 71
2019-01-28 10:00:00 15.9 6 Nordeste 21 Nordeste 0 -- -- 74
2019-01-28 09:00:00 15.2 6 Nordeste 13 Nordeste 0 -- -- 79
2019-01-28 08:00:00 14.8 5 Norte 16 Norte 0 -- -- 81
2019-01-28 07:00:00 15 8 Nordeste 20 Nordeste 0 -- -- 80
2019-01-28 06:00:00 15.1 8 Nordeste 23 Nordeste 0 -- -- 82
2019-01-28 05:00:00 15.3 5 Norte 21 Nordeste 0 -- -- 83
2019-01-28 04:00:00 15.5 8 Nordeste 23 Nordeste 0 -- -- 84
2019-01-28 03:00:00 15.3 4 Nordeste 15 Noroeste 0 -- -- 84
2019-01-28 02:00:00 15.2 7 Norte 15 Norte 0 -- -- 80
2019-01-28 01:00:00 15.2 5 Norte 13 Norte 0 -- -- 83
2019-01-28 00:00:00 14.2 5 Noroeste 12 Noroeste 0 -- -- 86
2019-01-27 23:00:00 15.3 3 Oeste 19 Nordeste 0 -- -- 79
2019-01-27 22:00:00 15.9 5 Nordeste 18 Nordeste 0 -- -- 77
2019-01-27 21:00:00 15.9 9 Nordeste 24 Norte 0 -- -- 78
2019-01-27 20:00:00 16.1 11 Norte 24 Nordeste 0 -- -- 79
2019-01-27 19:00:00 16.1 5 Nordeste 19 Este 0 -- -- 78
2019-01-27 18:00:00 16.4 9 Nordeste 21 Nordeste 0 -- -- 76
2019-01-27 17:00:00 16.8 6 Nordeste 19 Nordeste 0 -- -- 71
2019-01-27 16:00:00 17.2 10 Nordeste 25 Norte 0 -- -- 73
2019-01-27 15:00:00 18.5 11 Nordeste 21 Nordeste 0 -- -- 69
2019-01-27 14:00:00 18.1 9 Nordeste 21 Norte 0 -- -- 70
2019-01-27 13:00:00 18.5 9 Norte 18 Norte 0 -- -- 68
2019-01-27 12:00:00 18.5 4 Noroeste 10 Noroeste 0 -- -- 62
2019-01-27 11:00:00 17.7 5 Sudoeste 12 Sudoeste 0 -- -- 70
2019-01-27 10:00:00 16 5 Nordeste 15 Norte 0 -- -- 79
2019-01-27 09:00:00 15.3 3 Nordeste 20 Norte 0 -- -- 87
2019-01-27 08:00:00 14.9 5 Nordeste 11 Nordeste 0 -- -- 86
2019-01-27 07:00:00 13 3 Sudoeste 11 Sur 0 -- -- 87
2019-01-27 06:00:00 12.6 8 Sur 13 Sur 0 -- -- 81
2019-01-27 05:00:00 11.9 5 Sur 14 Sudoeste 0 -- -- 83
2019-01-27 04:00:00 12.7 8 Sur 14 Sur 0 -- -- 81
2019-01-27 03:00:00 13.2 8 Sur 16 Sur 0 -- -- 77
2019-01-27 02:00:00 13.1 8 Sur 14 Sur 0 -- -- 80
2019-01-27 01:00:00 13.4 6 Sur 13 Sudoeste 0 -- -- 82
2019-01-27 00:00:00 14.7 6 Sur 10 Sur 0 -- -- 75
2019-01-26 23:00:00 14.6 5 Sur 13 Sur 0 -- -- 76
2019-01-26 22:00:00 13.9 8 Sur 13 Sur 0 -- -- 77
2019-01-26 21:00:00 13.4 7 Sur 12 Sur 0 -- -- 82
2019-01-26 20:00:00 13.1 5 Sur 8 Sur 0 -- -- 88
2019-01-26 19:00:00 15 4 Sur 8 Sur 0 -- -- 84
2019-01-26 18:00:00 16.2 2 Noroeste 10 Sur 0 -- -- 81
2019-01-26 17:00:00 17.1 4 Noroeste 15 Nordeste 0 -- -- 77
2019-01-26 16:00:00 18.3 6 Norte 15 Norte 0 -- -- 69
2019-01-26 15:00:00 18.8 4 Noroeste 13 Este 0 -- -- 67
2019-01-26 14:00:00 17.2 4 Nordeste 14 Nordeste 0 -- -- 75
2019-01-26 13:00:00 17.3 5 Nordeste 12 Este 0 -- -- 77
2019-01-26 12:00:00 16.9 5 Norte 11 Norte 0 -- -- 82
2019-01-26 11:00:00 17 5 Sudoeste 6 Sudoeste 0 -- -- 76
2019-01-26 10:00:00 15.2 0 Calma 9 Sur 0 -- -- 81
2019-01-26 09:00:00 14.4 5 Sur 13 Sur 0 -- -- 82
2019-01-26 08:00:00 13.4 6 Sur 11 Sur 0 -- -- 83
2019-01-26 07:00:00 13.6 5 Sur 9 Sur 0 -- -- 83
2019-01-26 06:00:00 13.7 4 Sur 10 Sur 0 -- -- 82
2019-01-26 05:00:00 13.4 5 Sur 11 Sur 0 -- -- 82
2019-01-26 04:00:00 12.8 6 Sur 11 Sur 0 -- -- 84
2019-01-26 03:00:00 12.3 6 Sur 9 Sur 0 -- -- 86
2019-01-26 02:00:00 13.2 6 Sur 13 Sur 0 -- -- 82
2019-01-26 01:00:00 13.4 8 Sur 14 Sur 0 -- -- 85
2019-01-26 00:00:00 13.6 6 Sur 11 Sur 0 -- -- 86
2019-01-25 23:00:00 14.9 4 Sur 7 Sudeste 0 -- -- 86
2019-01-25 22:00:00 15.5 2 Norte 12 Nordeste 0 -- -- 83
2019-01-25 21:00:00 15.6 2 Sur 13 Nordeste 0 -- -- 84
2019-01-25 20:00:00 15.9 5 Nordeste 10 Norte 0 -- -- 82
2019-01-25 19:00:00 16 2 Este 10 Norte 0 -- -- 83
2019-01-25 18:00:00 16.5 3 Nordeste 14 Nordeste 0 -- -- 81
2019-01-25 17:00:00 16.7 7 Nordeste 15 Nordeste 0 -- -- 78
2019-01-25 16:00:00 17.1 7 Nordeste 17 Nordeste 0 -- -- 76
2019-01-25 15:00:00 18.1 7 Norte 13 Noroeste 0 -- -- 63
2019-01-25 14:00:00 16.9 5 Nordeste 13 Norte 0 -- -- 73
2019-01-25 13:00:00 16.4 5 Norte 15 Nordeste 0 -- -- 86
2019-01-25 12:00:00 16.4 7 Nordeste 15 Nordeste 0 -- -- 82
2019-01-25 11:00:00 15.9 4 Sur 8 Sur 0 -- -- 78
2019-01-25 10:00:00 14.4 5 Sur 10 Sur 0 -- -- 82
2019-01-25 09:00:00 12.8 5 Sur 13 Sur 0 -- -- 85
2019-01-25 08:00:00 11.9 8 Sur 12 Sur 0 -- -- 89
2019-01-25 07:00:00 12 6 Sur 12 Sur 0 -- -- 87
2019-01-25 06:00:00 12.6 3 Sur 9 Sur 0 -- -- 85
2019-01-25 05:00:00 13.4 6 Sur 12 Sur 0 -- -- 86
2019-01-25 04:00:00 13.5 4 Sur 8 Sur 0 -- -- 90
2019-01-25 03:00:00 13.7 4 Sur 6 Sur 0 -- -- 88
2019-01-25 02:00:00 14.4 0 Calma 7 Sur 0 -- -- 88
2019-01-25 01:00:00 14.5 0 Calma 9 Norte 0 -- -- 87
2019-01-25 00:00:00 14.6 4 Nordeste 15 Nordeste 0 -- -- 86
2019-01-24 23:00:00 14.3 3 Nordeste 13 Sur 0 -- -- 83
2019-01-24 22:00:00 14.5 5 Sudoeste 20 Nordeste 0 -- -- 80
2019-01-24 21:00:00 14.7 6 Norte 22 Nordeste 0 -- -- 82
2019-01-24 20:00:00 15.1 6 Nordeste 21 Este 0 -- -- 77
2019-01-24 19:00:00 15.2 10 Nordeste 24 Norte 0 -- -- 75
2019-01-24 18:00:00 15.4 6 Norte 24 Norte 0 -- -- 70
2019-01-24 17:00:00 15.9 8 Nordeste 26 Norte 0 -- -- 68
2019-01-24 16:00:00 16 12 Nordeste 23 Norte 0 -- -- 75
2019-01-24 15:00:00 16.5 8 Norte 18 Nordeste 0 -- -- 72
2019-01-24 14:00:00 16.9 8 Norte 18 Norte 0 -- -- 64
2019-01-24 13:00:00 16.6 9 Nordeste 22 Nordeste 0 -- -- 64
2019-01-24 12:00:00 16 6 Norte 24 Norte 0 -- -- 68
2019-01-24 11:00:00 15 10 Norte 25 Norte 0 -- -- 74
2019-01-24 10:00:00 14.3 9 Nordeste 22 Nordeste 0 -- -- 90
2019-01-24 09:00:00 14.3 5 Norte 14 Norte 0 -- -- 84
2019-01-24 08:00:00 14.1 3 Nordeste 19 Nordeste 0 -- -- 84
2019-01-24 07:00:00 14.3 2 Norte 10 Norte 0 -- -- 78
2019-01-24 06:00:00 14.2 4 Norte 21 Norte 0 -- -- 79
2019-01-24 05:00:00 14.4 5 Norte 15 Noroeste 0 -- -- 80
2019-01-24 04:00:00 14.4 10 Nordeste 27 Nordeste 0 -- -- 79
2019-01-24 03:00:00 14.5 8 Norte 18 Nordeste 0 -- -- 77
2019-01-24 02:00:00 14.5 6 Norte 21 Nordeste 0 -- -- 74
2019-01-24 01:00:00 14.2 8 Nordeste 23 Nordeste 0 -- -- 79
2019-01-24 00:00:00 14.8 5 Noroeste 23 Norte 0 -- -- 71
2019-01-23 23:00:00 15 4 Norte 22 Nordeste 0 -- -- 67
2019-01-23 22:00:00 15 11 Norte 26 Norte 0 -- -- 66
2019-01-23 21:00:00 14.8 8 Norte 27 Norte 0 -- -- 66
2019-01-23 20:00:00 14.9 12 Nordeste 30 Nordeste 0 -- -- 64
2019-01-23 19:00:00 14.9 7 Norte 25 Nordeste 0 -- -- 70
2019-01-23 18:00:00 15.1 7 Nordeste 24 Este 0 -- -- 63
2019-01-23 17:00:00 15.1 10 Nordeste 24 Nordeste 0 -- -- 67
2019-01-23 16:00:00 15.3 10 Norte 23 Norte 0 -- -- 64
2019-01-23 15:00:00 15.4 10 Norte 26 Norte 0 -- -- 64
2019-01-23 14:00:00 15.4 13 Norte 28 Norte 0 -- -- 66
2019-01-23 13:00:00 16.2 8 Norte 22 Este 0 -- -- 63
2019-01-23 12:00:00 15.8 10 Norte 27 Norte 0 -- -- 62
2019-01-23 11:00:00 15.6 10 Nordeste 25 Norte 0 -- -- 63
2019-01-23 10:00:00 15 8 Nordeste 26 Norte 0 -- -- 62
2019-01-23 09:00:00 14.6 9 Nordeste 26 Nordeste 0 -- -- 65
2019-01-23 08:00:00 14.7 10 Norte 24 Noroeste 0 -- -- 64
2019-01-23 07:00:00 14.7 8 Nordeste 29 Norte 0 -- -- 64
2019-01-23 06:00:00 14.8 10 Nordeste 34 Nordeste 0 -- -- 63
2019-01-23 05:00:00 14.9 10 Nordeste 25 Norte 0 -- -- 68
2019-01-23 04:00:00 14.7 8 Nordeste 22 Nordeste 0 -- -- 70
2019-01-23 03:00:00 14.9 8 Norte 27 Norte 0 -- -- 65
2019-01-23 02:00:00 15 10 Norte 24 Norte 0 -- -- 74
2019-01-23 01:00:00 15.1 13 Norte 32 Nordeste 0 -- -- 72
2019-01-23 00:00:00 15.3 11 Norte 27 Norte 0 -- -- 65
2019-01-22 23:00:00 15 9 Nordeste 33 Norte 0 -- -- 74
2019-01-22 22:00:00 15.3 11 Nordeste 35 Norte 0 -- -- 66
2019-01-22 21:00:00 15.3 13 Norte 31 Nordeste 0 -- -- 63
2019-01-22 20:00:00 15.3 11 Nordeste 32 Nordeste 0 -- -- 70
2019-01-22 19:00:00 15.5 11 Norte 28 Nordeste 0 -- -- 70
2019-01-22 18:00:00 15.6 8 Nordeste 32 Nordeste 0 -- -- 62
2019-01-22 17:00:00 15.7 10 Norte 28 Nordeste 0 -- -- 66
2019-01-22 16:00:00 16 8 Norte 26 Nordeste 0 -- -- 71
2019-01-22 15:00:00 16.3 12 Norte 26 Nordeste 0 -- -- 64
2019-01-22 14:00:00 16.8 10 Norte 25 Nordeste 0 -- -- 54
2019-01-22 13:00:00 16.6 11 Nordeste 25 Norte 0 -- -- 55
2019-01-22 12:00:00 16.1 9 Nordeste 33 Nordeste 0 -- -- 70
2019-01-22 11:00:00 15.9 11 Nordeste 29 Noroeste 0 -- -- 61
2019-01-22 10:00:00 15.1 8 Norte 29 Norte 0 -- -- 70
2019-01-22 09:00:00 14.7 9 Nordeste 27 Nordeste 0 -- -- 72
2019-01-22 08:00:00 13.7 8 Nordeste 37 Norte 0 -- -- 82
2019-01-22 07:00:00 14.4 9 Nordeste 24 Norte 0 -- -- 69
2019-01-22 06:00:00 14.5 12 Nordeste 28 Nordeste 0 -- -- 68
2019-01-22 05:00:00 14.7 11 Norte 33 Norte 0 -- -- 74
2019-01-22 04:00:00 14.6 10 Norte 25 Norte 0 -- -- 74
2019-01-22 03:00:00 14.2 9 Norte 33 Nordeste 0 -- -- 81
2019-01-22 02:00:00 14.3 14 Norte 35 Norte 0 -- -- 81
2019-01-22 01:00:00 14.4 12 Norte 33 Nordeste 0 -- -- 83
2019-01-22 00:00:00 14.3 9 Norte 35 Nordeste 0 -- -- 82
2019-01-21 23:00:00 14.8 15 Norte 31 Nordeste 0 -- -- 79
2019-01-21 22:00:00 14.8 14 Norte 32 Norte 0 -- -- 78
2019-01-21 21:00:00 14.9 15 Nordeste 34 Norte 0 -- -- 76
2019-01-21 20:00:00 15.1 13 Norte 33 Nordeste 0 -- -- 74
2019-01-21 19:00:00 15.2 13 Nordeste 30 Nordeste 0 -- -- 74
2019-01-21 18:00:00 15.4 9 Norte 31 Este 0 -- -- 76
2019-01-21 17:00:00 15.9 8 Nordeste 30 Norte 0 -- -- 70
2019-01-21 16:00:00 15.8 12 Nordeste 36 Norte 0 -- -- 67
2019-01-21 15:00:00 16.5 14 Norte 33 Norte 0 -- -- 62
2019-01-21 14:00:00 16.5 14 Nordeste 32 Nordeste 0 -- -- 69
2019-01-21 13:00:00 16.4 16 Norte 35 Norte 0 -- -- 67
2019-01-21 12:00:00 15.8 12 Nordeste 36 Nordeste 0 -- -- 74
2019-01-21 11:00:00 15.7 12 Norte 35 Norte 0 -- -- 81
2019-01-21 10:00:00 15.1 15 Nordeste 39 Nordeste 0 -- -- 88
2019-01-21 09:00:00 14.4 8 Norte 32 Nordeste 0 -- -- 92
2019-01-21 08:00:00 14.3 10 Nordeste 39 Norte 0 -- -- 93
2019-01-21 07:00:00 14.6 10 Norte 31 Nordeste 0 -- -- 91
2019-01-21 06:00:00 14.3 12 Nordeste 32 Nordeste 0 -- -- 90
2019-01-21 05:00:00 14.8 10 Nordeste 34 Nordeste 0.2 -- -- 89
2019-01-21 04:00:00 15.1 8 Nordeste 20 Norte 0 -- -- 86
2019-01-21 03:00:00 15 10 Nordeste 26 Nordeste 0 -- -- 87
2019-01-21 02:00:00 15.1 10 Norte 28 Norte 0 -- -- 90
2019-01-21 01:00:00 15.2 13 Nordeste 32 Norte 0 -- -- 91
2019-01-21 00:00:00 15.3 12 Nordeste 30 Nordeste 0 -- -- 84
2019-01-20 23:00:00 15 12 Nordeste 37 Nordeste 4.4 -- -- 97
2019-01-20 22:00:00 14.9 9 Nordeste 26 Nordeste 1 -- -- 95
2019-01-20 21:00:00 15.6 3 Sur 17 Este 0 -- -- 85
2019-01-20 20:00:00 16.1 5 Nordeste 17 Norte 0 -- -- 75
2019-01-20 19:00:00 16.2 8 Nordeste 20 Nordeste 0 -- -- 73
2019-01-20 18:00:00 16.4 9 Nordeste 19 Nordeste 0 -- -- 70
2019-01-20 17:00:00 16.9 6 Nordeste 24 Nordeste 0 -- -- 66
2019-01-20 16:00:00 16.7 12 Nordeste 29 Nordeste 0 -- -- 69
2019-01-20 15:00:00 16.9 12 Nordeste 27 Norte 0 -- -- 70
2019-01-20 14:00:00 17.2 10 Nordeste 28 Norte 0 -- -- 65
2019-01-20 13:00:00 17.2 10 Nordeste 23 Norte 0 -- -- 59
2019-01-20 12:00:00 16.8 9 Nordeste 22 Nordeste 0 -- -- 63
2019-01-20 11:00:00 16.1 10 Norte 24 Nordeste 0 -- -- 69
2019-01-20 10:00:00 15.7 6 Norte 14 Este 0 -- -- 73
2019-01-20 09:00:00 15.2 6 Norte 16 Nordeste 0 -- -- 78
2019-01-20 08:00:00 15.3 6 Norte 19 Norte 0 -- -- 70
2019-01-20 07:00:00 15.2 7 Nordeste 16 Norte 0 -- -- 74
2019-01-20 06:00:00 15.1 8 Noroeste 17 Nordeste 0 -- -- 75
2019-01-20 05:00:00 15.2 7 Norte 28 Nordeste 0 -- -- 70
2019-01-20 04:00:00 15.2 7 Norte 21 Nordeste 0 -- -- 71
2019-01-20 03:00:00 15.1 5 Norte 22 Norte 0 -- -- 74
2019-01-20 02:00:00 15 7 Norte 18 Nordeste 0 -- -- 76
2019-01-20 01:00:00 14.8 6 Norte 16 Norte 0 -- -- 80
2019-01-20 00:00:00 14.8 10 Norte 24 Nordeste 0 -- -- 84
2019-01-19 23:00:00 14.7 8 Norte 22 Nordeste 0.2 -- -- 84
2019-01-19 22:00:00 14.2 6 Norte 19 Norte 0.2 -- -- 89
2019-01-19 21:00:00 14.3 7 Norte 23 Nordeste 0.2 -- -- 88
2019-01-19 20:00:00 14.7 4 Nordeste 22 Nordeste 0 -- -- 86
2019-01-19 19:00:00 14.9 6 Nordeste 22 Nordeste 0 -- -- 85
2019-01-19 18:00:00 15.2 6 Norte 22 Nordeste 0 -- -- 83
2019-01-19 17:00:00 15.5 9 Nordeste 25 Nordeste 0 -- -- 81
2019-01-19 16:00:00 15.6 8 Norte 26 Nordeste 0 -- -- 83
2019-01-19 15:00:00 15.9 8 Nordeste 28 Nordeste 0 -- -- 77
2019-01-19 14:00:00 15.9 8 Nordeste 26 Norte 0 -- -- 78
2019-01-19 13:00:00 16.5 9 Norte 24 Norte 0 -- -- 74
2019-01-19 12:00:00 15.8 7 Nordeste 24 Norte 0 -- -- 79
2019-01-19 11:00:00 15.6 9 Nordeste 20 Nordeste 0 -- -- 76
2019-01-19 10:00:00 14.9 6 Noroeste 16 Noroeste 0 -- -- 82
2019-01-19 09:00:00 14.1 4 Norte 15 Norte 0 -- -- 88
2019-01-19 08:00:00 13.4 4 Sudeste 35 Nordeste 0.2 -- -- 91
2019-01-19 07:00:00 14.5 11 Norte 30 Nordeste 0 -- -- 81
2019-01-19 06:00:00 14.7 13 Nordeste 32 Norte 0 -- -- 83
2019-01-19 05:00:00 14.4 11 Nordeste 27 Nordeste 0 -- -- 82
2019-01-19 04:00:00 14.4 12 Norte 32 Nordeste 0 -- -- 81
2019-01-19 03:00:00 14.3 8 Nordeste 23 Nordeste 0 -- -- 84
2019-01-19 02:00:00 14.6 10 Norte 28 Nordeste 0 -- -- 75
2019-01-19 01:00:00 14.8 9 Norte 31 Nordeste 0 -- -- 76
2019-01-19 00:00:00 14.7 13 Nordeste 33 Norte 0 -- -- 76